Time;durP1;ratioP1;P1;durP2;ratioP2;P2;SDS_P1;SDS_P2;PMS_P1;PMS_P2;Temp;Humidity;BMP_temperature;BMP_pressure;BME280_temperature;BME280_humidity;BME280_pressure;Samples;Min_cycle;Max_cycle;Signal;HPM_P1;HPM_P2
2022/07/11 00:01:22;;;;;;;4.55;3.00;;;;;;;17.71;71.30;101068.50;4921953;28;20055;-76
2022/07/11 00:03:49;;;;;;;4.45;3.08;;;;;;;17.37;71.19;101005.56;4925033;28;20110;-76
2022/07/11 00:06:16;;;;;;;4.03;2.88;;;;;;;17.69;71.17;101054.34;4929456;28;20170;-76
2022/07/11 00:08:42;;;;;;;3.10;2.80;;;;;;;17.88;70.97;101081.66;4928252;28;20067;-75
2022/07/11 00:11:09;;;;;;;5.10;2.85;;;;;;;17.87;70.74;101072.75;4926719;28;20091;-75
2022/07/11 00:13:36;;;;;;;3.50;2.55;;;;;;;17.96;70.55;101075.75;4926484;29;20497;-75
2022/07/11 00:16:03;;;;;;;3.35;2.70;;;;;;;17.88;70.20;101065.56;4924768;28;20056;-75
2022/07/11 00:18:37;;;;;;;4.63;2.75;;;;;;;17.94;69.90;101064.31;4932165;28;20059;-76
2022/07/11 00:21:04;;;;;;;2.85;2.47;;;;;;;17.94;69.92;101072.34;4925896;29;20056;-76
2022/07/11 00:23:30;;;;;;;2.92;2.63;;;;;;;17.87;70.29;101067.41;4926700;28;20113;-75
2022/07/11 00:25:57;;;;;;;3.70;2.80;;;;;;;17.97;70.27;101074.81;4925358;28;20055;-75
2022/07/11 00:28:24;;;;;;;3.25;2.33;;;;;;;17.86;69.94;101054.09;4923641;28;20496;-76
2022/07/11 00:30:52;;;;;;;4.15;2.78;;;;;;;17.98;70.04;101071.16;4934660;28;20420;-75
2022/07/11 00:33:19;;;;;;;3.65;3.05;;;;;;;17.90;70.15;101065.47;4926051;28;20147;-76
2022/07/11 00:35:46;;;;;;;4.20;2.40;;;;;;;17.90;70.47;101070.84;4929294;28;20055;-75
2022/07/11 00:38:14;;;;;;;3.90;2.58;;;;;;;17.83;70.31;101054.28;4930739;28;20080;-75
2022/07/11 00:40:40;;;;;;;2.78;2.58;;;;;;;17.90;70.70;101062.81;4938865;28;20133;-77
2022/07/11 00:43:07;;;;;;;4.97;2.50;;;;;;;17.70;70.76;101026.63;4927427;28;20059;-73
2022/07/11 00:45:34;;;;;;;3.33;2.85;;;;;;;17.88;70.60;101053.03;4929004;28;20058;-75
2022/07/11 00:48:01;;;;;;;4.97;2.85;;;;;;;17.91;70.62;101060.03;4930106;28;20638;-76
2022/07/11 00:50:27;;;;;;;3.95;3.55;;;;;;;17.71;71.37;101039.91;4932992;28;20052;-76
2022/07/11 00:52:55;;;;;;;5.15;3.20;;;;;;;17.77;71.89;101060.09;4930728;28;20051;-75
2022/07/11 00:55:22;;;;;;;3.92;3.45;;;;;;;17.68;72.25;101045.47;4934380;29;20419;-75
2022/07/11 00:57:51;;;;;;;4.95;3.20;;;;;;;17.69;72.50;101046.31;4924296;28;20067;-75
2022/07/11 01:00:18;;;;;;;4.38;3.40;;;;;;;17.81;72.31;101057.06;4936701;28;20158;-77
2022/07/11 01:02:44;;;;;;;5.30;3.00;;;;;;;17.79;72.17;101040.25;4921132;28;20071;-75
2022/07/11 01:05:11;;;;;;;5.20;3.10;;;;;;;17.88;71.87;101050.34;4923030;28;20056;-75
2022/07/11 01:07:38;;;;;;;3.88;3.47;;;;;;;17.91;72.14;101043.09;4927572;29;20064;-77
2022/07/11 01:10:06;;;;;;;3.75;3.10;;;;;;;17.98;71.55;101039.00;4933361;28;20056;-75
2022/07/11 01:12:33;;;;;;;4.30;3.40;;;;;;;18.09;71.17;101048.06;4925707;28;20055;-76
2022/07/11 01:15:02;;;;;;;7.45;3.83;;;;;;;18.07;70.91;101047.31;4920883;28;20059;-75
2022/07/11 01:17:29;;;;;;;3.95;3.10;;;;;;;17.93;71.51;101041.16;4925890;28;20056;-76
2022/07/11 01:19:55;;;;;;;4.53;3.67;;;;;;;17.82;71.75;101037.38;4928815;28;20052;-76
2022/07/11 01:22:24;;;;;;;4.82;3.35;;;;;;;17.78;72.33;101035.00;4931549;28;20060;-75
2022/07/11 01:24:51;;;;;;;3.72;3.22;;;;;;;17.59;72.89;101013.06;4923454;28;20047;-75
2022/07/11 01:27:19;;;;;;;4.82;3.47;;;;;;;17.62;73.25;101019.06;4925783;28;20052;-76
2022/07/11 01:29:45;;;;;;;3.92;3.45;;;;;;;17.58;73.20;101008.66;4926504;28;20563;-75
2022/07/11 01:32:12;;;;;;;3.65;3.17;;;;;;;17.55;73.13;101009.72;4928441;28;20099;-75
2022/07/11 01:34:39;;;;;;;4.18;3.75;;;;;;;17.71;73.77;101029.19;4921189;28;20056;-76
2022/07/11 01:37:05;;;;;;;3.60;3.30;;;;;;;17.76;73.20;101029.75;4921829;28;20197;-76
2022/07/11 01:39:32;;;;;;;4.72;3.38;;;;;;;17.84;73.16;101024.72;4927494;28;20047;-75
2022/07/11 01:41:59;;;;;;;5.18;3.50;;;;;;;17.77;72.87;101006.50;4929873;28;20051;-76
2022/07/11 01:44:28;;;;;;;4.22;3.35;;;;;;;17.90;72.57;101020.78;4926702;28;20051;-75
2022/07/11 01:46:54;;;;;;;3.67;3.15;;;;;;;17.81;72.53;101008.00;4924052;28;20649;-75
2022/07/11 01:49:21;;;;;;;6.25;3.60;;;;;;;17.92;72.35;101015.31;4933013;28;20087;-75
2022/07/11 01:51:49;;;;;;;3.60;3.30;;;;;;;17.83;72.22;101001.56;4926376;28;20486;-75
2022/07/11 01:54:15;;;;;;;3.10;2.80;;;;;;;17.84;72.38;101002.44;4922291;28;20071;-75
2022/07/11 01:56:42;;;;;;;4.13;3.20;;;;;;;17.90;72.31;101011.88;4931923;28;20052;-75
2022/07/11 01:59:08;;;;;;;5.60;3.05;;;;;;;17.87;72.29;101011.13;4934499;28;20119;-75
2022/07/11 02:01:35;;;;;;;5.20;3.20;;;;;;;17.92;72.42;101012.66;4933434;28;20504;-76
2022/07/11 02:04:02;;;;;;;6.28;3.10;;;;;;;17.97;72.20;101016.72;4929215;28;20043;-76
2022/07/11 02:06:29;;;;;;;5.60;3.40;;;;;;;18.00;71.90;101019.19;4927311;28;20051;-75
2022/07/11 02:08:55;;;;;;;4.75;3.50;;;;;;;17.90;72.60;101019.94;4930326;28;20043;-76
2022/07/11 02:11:23;;;;;;;5.63;3.58;;;;;;;17.75;72.96;101001.25;4931462;28;20055;-76
2022/07/11 02:13:50;;;;;;;5.15;3.40;;;;;;;17.74;73.60;101018.28;4935939;28;20053;-77
2022/07/11 02:16:17;;;;;;;6.78;3.90;;;;;;;17.69;73.50;101017.72;4930696;29;20428;-77
2022/07/11 02:18:44;;;;;;;4.90;3.30;;;;;;;17.71;73.92;101014.94;4927662;28;20082;-76
2022/07/11 02:21:12;;;;;;;5.30;3.70;;;;;;;17.73;74.01;101011.19;4934649;28;20846;-76
2022/07/11 02:23:39;;;;;;;5.25;3.90;;;;;;;17.76;73.34;101015.50;4934352;28;20044;-75
2022/07/11 02:26:06;;;;;;;9.30;4.30;;;;;;;17.68;73.61;101010.63;4932363;28;20139;-75
2022/07/11 02:28:34;;;;;;;6.90;3.90;;;;;;;17.63;74.06;101012.72;4931423;28;20073;-75
2022/07/11 02:31:00;;;;;;;6.40;4.00;;;;;;;17.63;74.01;101012.72;4931392;28;20118;-75
2022/07/11 02:33:27;;;;;;;4.95;3.97;;;;;;;17.63;74.08;101007.38;4930047;28;20127;-76
2022/07/11 02:35:54;;;;;;;3.78;3.47;;;;;;;17.58;73.78;100992.59;4930911;28;20055;-75
2022/07/11 02:38:21;;;;;;;5.40;3.58;;;;;;;17.71;74.09;101010.44;4933725;28;20526;-75
2022/07/11 02:40:47;;;;;;;4.28;3.70;;;;;;;17.68;73.39;100986.53;4934914;29;20083;-76
2022/07/11 02:43:15;;;;;;;4.88;3.90;;;;;;;17.70;73.40;101006.03;4933169;28;20107;-76
2022/07/11 02:45:42;;;;;;;4.25;3.85;;;;;;;17.67;73.68;100998.22;4934177;28;20094;-75
2022/07/11 02:48:09;;;;;;;8.02;3.78;;;;;;;17.76;73.67;101002.09;4931037;28;20091;-75
2022/07/11 02:50:35;;;;;;;6.43;3.83;;;;;;;17.66;73.40;100985.78;4931995;28;20043;-75
2022/07/11 02:53:02;;;;;;;7.05;4.20;;;;;;;17.79;73.17;101002.72;4935584;28;20063;-75
2022/07/11 02:55:29;;;;;;;5.78;3.95;;;;;;;17.77;72.97;101009.19;4933728;28;20047;-75
2022/07/11 02:57:55;;;;;;;8.95;4.40;;;;;;;17.70;73.79;101014.09;4933277;28;20071;-74
2022/07/11 03:00:22;;;;;;;6.97;4.40;;;;;;;17.66;73.99;101014.38;4936237;28;20516;-77
2022/07/11 03:02:49;;;;;;;6.40;4.00;;;;;;;17.59;73.99;101000.53;4930102;28;20044;-75
2022/07/11 03:05:15;;;;;;;4.18;3.75;;;;;;;17.46;74.04;100981.75;4929383;28;20048;-75
2022/07/11 03:07:42;;;;;;;7.43;4.28;;;;;;;17.64;74.08;101010.94;4933252;28;20039;-77
2022/07/11 03:10:09;;;;;;;6.55;4.25;;;;;;;17.64;73.96;101001.09;4933136;28;20073;-77
2022/07/11 03:12:36;;;;;;;7.32;4.57;;;;;;;17.60;73.46;100999.56;4926848;28;20052;-75
2022/07/11 03:15:04;;;;;;;8.80;4.30;;;;;;;17.61;74.03;101003.09;4922248;28;20081;-76
2022/07/11 03:17:30;;;;;;;6.75;4.05;;;;;;;17.72;73.33;101001.44;4922229;28;20051;-75
2022/07/11 03:19:57;;;;;;;4.50;4.10;;;;;;;17.73;73.08;101007.66;4930687;28;20051;-75
2022/07/11 03:22:24;;;;;;;6.78;4.00;;;;;;;17.69;73.07;101009.69;4930931;28;20106;-78
2022/07/11 03:24:51;;;;;;;7.85;3.78;;;;;;;17.69;73.33;101011.50;4931345;28;20107;-76
2022/07/11 03:27:18;;;;;;;5.90;4.03;;;;;;;17.72;73.16;101011.31;4929995;28;20043;-76
2022/07/11 03:29:44;;;;;;;5.30;3.80;;;;;;;17.75;72.90;101008.44;4932845;28;20082;-75
2022/07/11 03:32:11;;;;;;;4.93;3.70;;;;;;;17.77;72.61;101006.50;4931367;28;20779;-76
2022/07/11 03:34:38;;;;;;;4.97;3.78;;;;;;;17.72;72.93;101009.47;4931299;28;20087;-75
2022/07/11 03:37:06;;;;;;;4.38;3.72;;;;;;;17.76;72.91;101000.28;4929575;28;20617;-76
2022/07/11 03:39:32;;;;;;;5.15;4.18;;;;;;;17.63;72.78;100972.56;4933208;28;20085;-75
2022/07/11 03:41:59;;;;;;;5.13;3.67;;;;;;;17.84;72.64;100999.75;4932811;28;20111;-76
2022/07/11 03:44:26;;;;;;;5.93;3.70;;;;;;;17.92;72.23;101007.28;4927753;28;20099;-75
2022/07/11 03:46:52;;;;;;;6.68;3.75;;;;;;;17.88;72.16;100998.59;4930574;28;20047;-74
2022/07/11 03:49:19;;;;;;;8.13;3.80;;;;;;;17.84;72.22;100994.41;4927888;28;20833;-75
2022/07/11 03:51:45;;;;;;;3.95;3.53;;;;;;;17.81;72.07;100992.78;4934240;28;20071;-77
2022/07/11 03:54:12;;;;;;;5.57;3.97;;;;;;;17.88;72.16;101003.94;4934897;28;20456;-75
2022/07/11 03:56:39;;;;;;;5.40;3.42;;;;;;;17.84;72.23;101005.97;4932359;28;20131;-75
2022/07/11 03:59:05;;;;;;;6.57;4.25;;;;;;;17.85;72.57;101007.69;4928685;28;20103;-75
2022/07/11 04:01:32;;;;;;;4.40;3.40;;;;;;;17.88;72.47;101002.13;4934976;28;20512;-75
2022/07/11 04:03:59;;;;;;;5.18;3.65;;;;;;;17.91;72.22;101003.75;4927776;28;20412;-75
2022/07/11 04:06:25;;;;;;;7.70;4.05;;;;;;;17.75;72.58;100979.81;4929130;28;20103;-75
2022/07/11 04:08:52;;;;;;;6.65;4.03;;;;;;;17.93;72.42;100998.28;4928182;28;20043;-75
2022/07/11 04:11:19;;;;;;;3.45;3.15;;;;;;;17.97;72.18;101002.47;4928768;28;20052;-76
2022/07/11 04:13:46;;;;;;;3.78;3.28;;;;;;;18.06;72.10;101004.53;4931621;28;20135;-76
2022/07/11 04:16:13;;;;;;;6.63;3.60;;;;;;;18.01;71.52;100985.22;4926599;28;20047;-76
2022/07/11 04:18:40;;;;;;;5.40;3.90;;;;;;;17.98;71.36;100988.97;4926816;28;20103;-76
2022/07/11 04:21:07;;;;;;;6.63;3.75;;;;;;;17.81;72.17;100974.03;4927598;28;20056;-76
2022/07/11 04:23:36;;;;;;;4.70;3.80;;;;;;;17.88;72.48;100993.25;4932547;28;20129;-76
2022/07/11 04:26:04;;;;;;;5.63;3.75;;;;;;;17.84;72.74;100995.25;4919516;28;20466;-76
2022/07/11 04:28:32;;;;;;;5.18;3.92;;;;;;;17.75;73.03;100979.81;4926176;28;20062;-76
2022/07/11 04:30:58;;;;;;;6.60;3.80;;;;;;;17.83;73.21;100998.03;4923292;28;20047;-75
2022/07/11 04:33:25;;;;;;;5.50;4.07;;;;;;;17.80;73.04;100999.09;4927028;28;20107;-75
2022/07/11 04:35:51;;;;;;;6.00;3.58;;;;;;;17.78;73.18;101000.19;4925831;28;20501;-76
2022/07/11 04:38:21;;;;;;;7.72;4.50;;;;;;;17.81;73.19;101000.81;4929837;28;20052;-76
2022/07/11 04:40:48;;;;;;;6.22;3.80;;;;;;;17.83;73.30;100998.91;4928894;28;20052;-76
2022/07/11 04:43:15;;;;;;;8.52;4.40;;;;;;;17.66;73.19;100963.50;4931134;29;20675;-75
2022/07/11 04:45:42;;;;;;;5.13;3.53;;;;;;;17.84;73.02;101000.63;4926779;28;20716;-76
2022/07/11 04:48:09;;;;;;;7.65;4.78;;;;;;;17.87;73.31;101000.41;4929246;28;20086;-75
2022/07/11 04:50:36;;;;;;;5.47;3.80;;;;;;;17.87;73.30;101005.78;4928861;28;20070;-75
2022/07/11 04:53:03;;;;;;;6.00;3.53;;;;;;;17.88;73.09;100995.91;4930346;28;20063;-76
2022/07/11 04:55:30;;;;;;;6.75;3.45;;;;;;;17.88;73.00;100983.38;4928378;28;20079;-74
2022/07/11 04:57:56;;;;;;;7.70;3.55;;;;;;;18.06;73.08;100997.34;4928400;28;20048;-76
2022/07/11 05:00:23;;;;;;;4.07;3.40;;;;;;;18.15;72.26;101003.88;4920119;28;20087;-76
2022/07/11 05:02:50;;;;;;;4.30;3.28;;;;;;;18.19;72.36;101005.41;4930543;28;20131;-74
2022/07/11 05:05:17;;;;;;;7.05;3.90;;;;;;;18.14;71.84;100978.03;4923289;28;20054;-75
2022/07/11 05:07:43;;;;;;;6.60;3.85;;;;;;;18.36;71.60;101015.81;4920073;28;20055;-75
2022/07/11 05:10:10;;;;;;;5.75;3.80;;;;;;;18.29;71.16;101005.59;4923901;28;20106;-77
2022/07/11 05:12:37;;;;;;;5.18;4.00;;;;;;;18.17;71.31;101001.97;4927731;28;20055;-76
2022/07/11 05:15:04;;;;;;;5.40;3.67;;;;;;;18.24;71.98;101027.41;4925470;28;20059;-75
2022/07/11 05:17:32;;;;;;;5.10;3.63;;;;;;;18.31;71.92;101030.50;4923649;28;20044;-77
2022/07/11 05:19:59;;;;;;;5.43;3.72;;;;;;;18.37;71.89;101022.03;4925376;28;20056;-75
2022/07/11 05:22:26;;;;;;;4.47;3.95;;;;;;;18.31;70.93;101015.25;4925818;28;20460;-75
2022/07/11 05:24:53;;;;;;;4.95;3.70;;;;;;;18.25;71.18;101022.91;4928357;28;20059;-75
2022/07/11 05:27:19;;;;;;;9.07;4.05;;;;;;;18.15;71.59;101009.25;4926704;28;20040;-74
2022/07/11 05:29:46;;;;;;;6.65;4.00;;;;;;;18.11;72.05;101015.78;4926589;28;20051;-76
2022/07/11 05:32:13;;;;;;;8.52;4.65;;;;;;;18.21;71.96;101028.47;4927681;28;20056;-77
2022/07/11 05:34:40;;;;;;;7.35;3.25;;;;;;;18.28;71.55;101017.28;4927617;28;20047;-75
2022/07/11 05:37:06;;;;;;;8.75;3.97;;;;;;;18.23;70.19;101004.22;4925936;28;20085;-77
2022/07/11 05:39:33;;;;;;;6.10;3.95;;;;;;;18.41;70.65;101026.22;4931469;28;20044;-75
2022/07/11 05:42:00;;;;;;;5.47;4.15;;;;;;;18.51;69.99;101036.19;4931351;28;20040;-75
2022/07/11 05:44:26;;;;;;;6.80;3.72;;;;;;;18.41;70.37;101027.09;4923746;28;20122;-75
2022/07/11 05:46:58;;;;;;;6.80;4.10;;;;;;;18.41;70.86;101045.00;4931063;28;20098;-75
2022/07/11 05:49:25;;;;;;;7.43;3.90;;;;;;;18.22;70.89;101002.50;4930238;28;20133;-76
2022/07/11 05:51:51;;;;;;;7.43;4.03;;;;;;;18.50;70.71;101033.63;4924704;28;20350;-75
2022/07/11 05:54:18;;;;;;;13.90;4.47;;;;;;;18.56;70.18;101038.56;4926629;28;20083;-76
2022/07/11 05:56:45;;;;;;;12.50;4.10;;;;;;;18.62;69.78;101051.56;4919911;28;20052;-76
2022/07/11 05:59:11;;;;;;;7.32;4.10;;;;;;;18.60;70.06;101041.91;4918860;28;20106;-76
2022/07/11 06:01:38;;;;;;;9.07;4.00;;;;;;;18.56;69.78;101043.94;4916881;28;20055;-77
2022/07/11 06:04:05;;;;;;;10.15;3.90;;;;;;;18.52;70.15;101040.59;4921473;28;20097;-76
2022/07/11 06:06:32;;;;;;;8.88;3.55;;;;;;;18.69;69.62;101062.75;4921669;28;20063;-76
2022/07/11 06:08:59;;;;;;;9.38;4.43;;;;;;;18.73;69.16;101059.72;4921820;28;20079;-76
2022/07/11 06:11:26;;;;;;;9.25;4.78;;;;;;;18.75;69.62;101054.25;4916541;28;20051;-76
2022/07/11 06:13:52;;;;;;;12.30;4.72;;;;;;;18.80;69.45;101050.28;4918180;28;20465;-75
2022/07/11 06:16:25;;;;;;;9.55;4.22;;;;;;;18.96;68.74;101044.66;4918016;28;20056;-75
2022/07/11 06:18:52;;;;;;;10.43;4.82;;;;;;;19.14;67.23;101032.63;4928514;29;20055;-75
2022/07/11 06:21:20;;;;;;;7.75;4.32;;;;;;;19.11;67.20;101016.72;4928854;28;20518;-76
2022/07/11 06:23:47;;;;;;;12.48;4.90;;;;;;;19.14;67.02;101046.03;4929693;28;20110;-74
2022/07/11 06:26:15;;;;;;;6.18;4.65;;;;;;;19.17;66.88;101035.09;4928729;28;20392;-76
2022/07/11 06:28:42;;;;;;;7.28;4.85;;;;;;;19.08;67.58;101033.03;4927715;28;20067;-76
2022/07/11 06:31:09;;;;;;;4.75;3.97;;;;;;;19.11;68.09;101040.88;4926319;28;20131;-76
2022/07/11 06:33:36;;;;;;;6.40;4.03;;;;;;;19.18;67.61;101030.56;4918160;28;20078;-76
2022/07/11 06:36:04;;;;;;;5.00;4.15;;;;;;;19.39;66.35;101034.34;4931646;28;20048;-76
2022/07/11 06:38:31;;;;;;;4.68;3.95;;;;;;;19.53;65.74;101033.34;4920647;28;20043;-74
2022/07/11 06:40:58;;;;;;;7.25;4.40;;;;;;;19.53;65.05;101017.25;4917723;28;20233;-75
2022/07/11 06:43:25;;;;;;;8.20;4.00;;;;;;;19.60;64.90;101019.38;4917206;28;20083;-76
2022/07/11 06:45:52;;;;;;;7.18;4.53;;;;;;;19.76;64.50;101039.72;4917863;28;20064;-74
2022/07/11 06:48:20;;;;;;;7.07;4.50;;;;;;;19.66;65.13;101031.50;4876068;28;1218328;-75
2022/07/11 06:50:47;;;;;;;10.68;4.78;;;;;;;19.65;65.29;101037.84;4917751;28;21371;-76
2022/07/11 06:53:14;;;;;;;6.78;4.00;;;;;;;19.61;64.88;101039.91;4917093;28;20059;-76
2022/07/11 06:55:41;;;;;;;4.95;3.55;;;;;;;19.68;64.26;101040.28;4919143;29;20390;-75
2022/07/11 06:58:08;;;;;;;7.03;4.07;;;;;;;19.62;63.43;101030.00;4915353;28;20465;-76
2022/07/11 07:00:50;;;;;;;5.65;3.78;;;;;;;19.67;63.78;101035.91;4911777;28;20480;-76
2022/07/11 07:03:17;;;;;;;6.00;4.15;;;;;;;19.78;63.49;101043.16;4932039;28;20135;-77
2022/07/11 07:05:46;;;;;;;4.45;3.10;;;;;;;19.93;63.12;101031.25;4923062;28;20048;-76
2022/07/11 07:08:13;;;;;;;3.60;3.20;;;;;;;20.30;62.07;101029.28;4923553;28;20054;-75
2022/07/11 07:10:40;;;;;;;4.15;3.50;;;;;;;20.60;60.57;101043.06;4931828;28;20275;-76
2022/07/11 07:13:07;;;;;;;3.28;3.00;;;;;;;20.64;59.05;101036.44;4930553;28;20060;-76
2022/07/11 07:15:34;;;;;;;4.40;3.03;;;;;;;20.72;59.94;101037.69;4933955;28;20068;-76
2022/07/11 07:18:01;;;;;;;5.63;3.13;;;;;;;20.76;58.81;101037.34;4928544;29;20524;-76
2022/07/11 07:20:29;;;;;;;3.17;2.88;;;;;;;20.38;60.40;101037.63;4937087;28;20054;-76
2022/07/11 07:22:57;;;;;;;4.25;2.95;;;;;;;20.30;60.65;101042.75;4935393;28;20047;-77
2022/07/11 07:25:24;;;;;;;3.30;2.70;;;;;;;20.27;60.40;101030.38;4937922;28;20054;-78
2022/07/11 07:27:51;;;;;;;4.22;2.50;;;;;;;20.51;59.85;101043.78;4926399;28;20051;-75
2022/07/11 07:30:19;;;;;;;4.93;3.00;;;;;;;20.62;59.30;101043.78;4932454;28;20060;-75
2022/07/11 07:32:46;;;;;;;3.65;2.83;;;;;;;20.53;60.00;101039.13;4927188;28;20054;-75
2022/07/11 07:35:13;;;;;;;4.05;2.88;;;;;;;20.47;59.83;101046.81;4934777;28;20055;-75
2022/07/11 07:37:40;;;;;;;4.18;2.70;;;;;;;20.34;59.49;101028.06;4935905;28;20054;-75
2022/07/11 07:40:06;;;;;;;6.45;2.53;;;;;;;20.25;60.75;101045.78;4941787;28;20055;-75
2022/07/11 07:42:33;;;;;;;2.97;2.30;;;;;;;19.92;61.46;101021.47;4931382;28;20056;-76
2022/07/11 07:45:03;;;;;;;2.72;2.40;;;;;;;19.78;61.68;101024.34;4939008;28;20756;-76
2022/07/11 07:47:30;;;;;;;3.53;2.43;;;;;;;19.90;62.28;101037.69;4934249;28;20417;-75
2022/07/11 07:49:56;;;;;;;3.88;2.70;;;;;;;19.93;61.95;101032.09;4939541;28;20543;-75
2022/07/11 07:52:23;;;;;;;5.30;2.42;;;;;;;20.05;61.98;101050.94;4930040;28;20047;-76
2022/07/11 07:54:50;;;;;;;3.90;2.80;;;;;;;20.19;60.62;101045.38;4933806;28;20062;-76
2022/07/11 07:57:16;;;;;;;5.53;2.72;;;;;;;20.24;60.11;101045.88;4931165;29;20051;-77
2022/07/11 07:59:43;;;;;;;3.15;2.40;;;;;;;20.28;60.34;101032.09;4928752;28;20052;-76
2022/07/11 08:02:10;;;;;;;2.50;2.30;;;;;;;20.35;59.14;101021.69;4928611;29;20060;-75
2022/07/11 08:04:37;;;;;;;4.45;2.50;;;;;;;20.47;58.71;101031.53;4924580;28;20059;-76
2022/07/11 08:07:04;;;;;;;2.35;2.15;;;;;;;20.58;59.40;101050.41;4932233;28;20567;-76
2022/07/11 08:09:31;;;;;;;3.10;2.67;;;;;;;20.69;58.75;101036.09;4932234;28;20213;-76
2022/07/11 08:11:57;;;;;;;4.65;2.60;;;;;;;21.02;57.71;101040.63;4932277;28;20580;-76
2022/07/11 08:14:24;;;;;;;5.40;2.33;;;;;;;21.20;57.73;101033.78;4933160;28;20043;-76
2022/07/11 08:16:51;;;;;;;4.03;2.42;;;;;;;21.56;56.26;101037.16;4937377;28;20052;-75
2022/07/11 08:19:17;;;;;;;2.90;2.20;;;;;;;21.66;55.31;101040.78;4935118;28;20140;-78
2022/07/11 08:21:44;;;;;;;2.25;1.90;;;;;;;21.46;56.25;101041.56;4930257;28;20056;-76
2022/07/11 08:24:11;;;;;;;3.10;2.00;;;;;;;21.57;55.07;101036.13;4934917;28;20126;-76
2022/07/11 08:26:37;;;;;;;2.47;2.20;;;;;;;21.77;54.92;101050.66;4931604;28;20087;-80
2022/07/11 08:29:04;;;;;;;4.70;2.05;;;;;;;21.86;53.68;101048.06;4933618;29;20051;-76
2022/07/11 08:31:32;;;;;;;4.78;2.10;;;;;;;21.59;55.01;101039.56;4934463;28;20118;-76
2022/07/11 08:33:59;;;;;;;3.35;1.88;;;;;;;21.33;56.16;101049.81;4933748;28;20464;-75
2022/07/11 08:36:32;;;;;;;2.13;1.90;;;;;;;21.24;56.16;101054.13;4922668;28;20464;-76
2022/07/11 08:38:59;;;;;;;3.20;2.00;;;;;;;21.09;56.82;101055.31;4933013;28;20054;-77
2022/07/11 08:41:26;;;;;;;3.38;2.20;;;;;;;20.96;57.04;101039.28;4934101;28;20056;-75
2022/07/11 08:43:53;;;;;;;3.08;1.85;;;;;;;20.98;57.93;101044.53;4933276;28;20051;-76
2022/07/11 08:46:20;;;;;;;2.22;2.03;;;;;;;21.05;56.99;101051.16;4931762;28;20420;-75
2022/07/11 08:48:49;;;;;;;3.60;2.30;;;;;;;20.94;56.64;101043.06;4933492;28;20054;-76
2022/07/11 08:51:16;;;;;;;2.45;2.10;;;;;;;20.97;56.45;101061.66;4935696;28;20468;-76
2022/07/11 08:53:44;;;;;;;2.22;2.00;;;;;;;20.94;56.58;101051.13;4934438;28;20055;-77
2022/07/11 08:56:17;;;;;;;2.97;2.13;;;;;;;20.97;57.09;101054.44;4931963;28;20082;-75
2022/07/11 08:58:46;;;;;;;2.50;1.98;;;;;;;20.87;56.50;101014.94;4931845;28;20125;-76
2022/07/11 09:01:30;;;;;;;2.90;2.28;;;;;;;21.19;55.99;101040.16;4929346;28;20421;-77
2022/07/11 09:03:58;;;;;;;2.38;2.03;;;;;;;21.42;55.04;101051.72;4931057;28;20065;-75
2022/07/11 09:06:25;;;;;;;2.60;2.40;;;;;;;21.46;54.00;101025.41;4931140;28;20071;-76
2022/07/11 09:08:56;;;;;;;2.58;2.35;;;;;;;21.63;54.41;101023.03;4930067;28;20055;-75
2022/07/11 09:11:23;;;;;;;4.22;2.20;;;;;;;22.02;53.22;101045.84;4931339;28;20063;-76
2022/07/11 09:13:50;;;;;;;2.42;2.25;;;;;;;22.18;52.17;101049.94;4930141;28;20051;-75
2022/07/11 09:16:19;;;;;;;2.58;2.33;;;;;;;22.08;52.48;101043.56;4936250;28;20408;-77
2022/07/11 09:18:46;;;;;;;4.88;2.80;;;;;;;21.66;53.78;101019.22;4929065;28;20134;-75
2022/07/11 09:26:49;;;;;;;3.30;3.00;;;;;;;21.23;55.75;101048.84;4926519;28;20110;-76
2022/07/11 09:29:20;;;;;;;4.35;2.92;;;;;;;21.07;57.15;101024.97;4926874;28;20504;-76
2022/07/11 09:31:48;;;;;;;3.05;2.63;;;;;;;21.35;56.19;101040.63;4929825;28;20511;-76
2022/07/11 09:34:17;;;;;;;2.70;2.50;;;;;;;21.60;55.06;101042.13;4931006;28;20503;-76
2022/07/11 09:36:55;;;;;;;3.63;2.33;;;;;;;21.87;54.42;101038.16;4926506;28;20062;-77
2022/07/11 09:39:28;;;;;;;3.08;2.72;;;;;;;22.10;53.90;101039.78;4928018;28;20996;-76
2022/07/11 09:41:56;;;;;;;3.42;2.97;;;;;;;22.13;52.88;101041.34;4929199;28;20071;-76
2022/07/11 09:44:24;;;;;;;6.18;2.63;;;;;;;22.11;52.73;101043.31;4930513;28;20151;-76
2022/07/11 09:46:52;;;;;;;2.97;2.70;;;;;;;22.20;52.50;101032.59;4933018;28;21060;-75
2022/07/11 09:49:33;;;;;;;2.97;2.47;;;;;;;22.15;52.38;101023.19;4892731;29;20100;-75
2022/07/11 09:52:12;;;;;;;3.40;2.85;;;;;;;22.50;52.43;101034.53;4889271;29;20412;-76
2022/07/11 09:54:59;;;;;;;3.20;2.90;;;;;;;22.74;51.71;101043.16;4892262;29;20081;-76
2022/07/11 09:57:37;;;;;;;2.88;2.67;;;;;;;22.92;51.50;101018.25;4891729;29;20064;-76
2022/07/11 10:00:11;;;;;;;4.13;3.00;;;;;;;23.39;51.27;101024.81;4894342;29;20087;-75
2022/07/11 10:02:38;;;;;;;3.13;2.78;;;;;;;23.80;48.72;101021.03;4893886;29;20048;-76
2022/07/11 10:05:06;;;;;;;3.25;2.75;;;;;;;23.83;48.17;101012.63;4889773;29;20095;-76
2022/07/11 10:07:33;;;;;;;5.38;4.50;;;;;;;24.00;48.58;101006.50;4892688;29;20067;-75
2022/07/11 10:10:01;;;;;;;4.20;2.95;;;;;;;23.82;47.68;101001.97;4894363;29;20580;-76
2022/07/11 10:12:31;;;;;;;4.13;2.60;;;;;;;23.64;49.08;101010.78;4891364;29;20563;-76
2022/07/11 10:15:07;;;;;;;4.72;2.95;;;;;;;23.67;48.00;101013.19;4894422;29;20059;-75
2022/07/11 10:18:02;;;;;;;3.92;2.70;;;;;;;23.75;48.32;101015.22;4890130;29;20072;-76
2022/07/11 10:20:55;;;;;;;3.85;2.45;;;;;;;23.94;47.78;101023.31;4895748;29;20056;-76
2022/07/11 10:23:35;;;;;;;3.28;2.50;;;;;;;24.24;47.47;101018.78;4895307;29;20048;-76
2022/07/11 10:26:32;;;;;;;3.28;2.58;;;;;;;24.58;46.06;100997.44;4891167;29;20143;-75
2022/07/11 10:29:14;;;;;;;2.60;2.17;;;;;;;24.56;45.40;101008.41;4900472;29;20052;-77
2022/07/11 10:31:41;;;;;;;3.65;2.50;;;;;;;24.48;44.75;101017.28;4901651;29;20092;-75
2022/07/11 10:34:28;;;;;;;2.55;2.10;;;;;;;24.35;45.60;101011.34;4904474;29;20414;-77
2022/07/11 10:37:00;;;;;;;2.30;2.10;;;;;;;24.43;45.81;101019.56;4895248;29;20052;-75
2022/07/11 10:39:28;;;;;;;3.35;2.25;;;;;;;24.39;45.26;101018.19;4895758;29;20048;-76
2022/07/11 10:41:57;;;;;;;2.70;2.30;;;;;;;24.58;45.21;101021.81;4893752;29;20150;-76
2022/07/11 10:44:25;;;;;;;2.60;2.30;;;;;;;24.75;44.90;101024.59;4892130;29;20065;-75
2022/07/11 10:46:52;;;;;;;2.65;2.35;;;;;;;24.81;44.95;101021.31;4896030;29;20044;-77
2022/07/11 10:49:48;;;;;;;2.55;2.35;;;;;;;24.70;43.71;100993.56;4932436;28;20059;-77
2022/07/11 10:52:22;;;;;;;3.67;2.20;;;;;;;24.90;45.14;101024.13;4930147;28;20062;-76
2022/07/11 10:54:51;;;;;;;2.70;2.13;;;;;;;24.86;44.76;101017.31;4931707;28;20102;-77
2022/07/11 10:57:35;;;;;;;3.67;1.93;;;;;;;24.44;43.87;101002.34;4931436;28;20054;-76
2022/07/11 11:00:09;;;;;;;4.07;2.47;;;;;;;24.25;45.50;101007.78;4931900;28;20048;-75
2022/07/11 11:03:04;;;;;;;2.47;2.10;;;;;;;24.26;45.40;101019.47;4931043;28;20048;-76
2022/07/11 11:05:49;;;;;;;2.42;2.22;;;;;;;24.24;46.13;101018.78;4936121;28;20082;-76
2022/07/11 11:08:38;;;;;;;1.85;1.70;;;;;;;24.05;45.36;101008.78;4931096;28;20064;-76
2022/07/11 11:11:07;;;;;;;2.10;1.90;;;;;;;24.24;45.72;101013.38;4935722;28;20074;-76
2022/07/11 11:13:35;;;;;;;2.92;1.60;;;;;;;24.16;44.85;100988.84;4929669;28;20515;-76
2022/07/11 11:16:18;;;;;;;2.03;1.80;;;;;;;24.14;45.45;100997.94;4930989;28;20069;-76
2022/07/11 11:18:46;;;;;;;2.88;1.70;;;;;;;24.01;45.60;101012.78;4935012;28;20055;-75
2022/07/11 11:21:14;;;;;;;1.88;1.77;;;;;;;23.82;45.88;101013.63;4935355;28;20051;-75
2022/07/11 11:23:44;;;;;;;1.70;1.60;;;;;;;23.73;45.89;101012.66;4933829;28;20702;-75
2022/07/11 11:26:19;;;;;;;2.08;1.90;;;;;;;23.86;46.22;101006.09;4931502;28;20071;-75
2022/07/11 11:28:59;;;;;;;3.53;2.07;;;;;;;23.93;46.51;101010.78;4938437;28;20059;-75
2022/07/11 11:31:26;;;;;;;;;;;;;;;24.37;45.61;101011.19;4939308;28;20101;-75
2022/07/11 11:33:53;;;;;;;1.92;1.75;;;;;;;24.11;45.70;100984.69;4934660;28;19933;-77
2022/07/11 11:36:22;;;;;;;2.20;1.75;;;;;;;24.13;46.32;100996.25;4938676;28;20055;-75